Time;durP1;ratioP1;P1;durP2;ratioP2;P2;SDS_P1;SDS_P2;PMS_P1;PMS_P2;Temp;Humidity;BMP_temperature;BMP_pressure;BME280_temperature;BME280_humidity;BME280_pressure;Samples;Min_cycle;Max_cycle;Signal;HPM_P1;HPM_P2
2023/06/20 00:00:08;;;;;;;6.65;3.00;;;20.70;99.90;;;;;;4986019;28;20054;-68
2023/06/20 00:02:34;;;;;;;5.25;3.03;;;20.70;99.90;;;;;;4977674;28;20019;-68
2023/06/20 00:05:00;;;;;;;7.50;3.33;;;20.70;99.90;;;;;;4981375;28;20556;-67
2023/06/20 00:07:26;;;;;;;10.77;3.72;;;20.70;99.90;;;;;;4980230;28;20054;-67
2023/06/20 00:09:51;;;;;;;4.43;3.05;;;20.80;99.90;;;;;;4974267;28;20023;-68
2023/06/20 00:12:17;;;;;;;7.35;3.00;;;20.70;99.90;;;;;;4980719;28;20527;-67
2023/06/20 00:14:43;;;;;;;6.85;3.55;;;20.70;99.90;;;;;;4978805;28;20439;-67
2023/06/20 00:17:08;;;;;;;6.80;3.17;;;20.70;99.90;;;;;;4979707;28;20169;-66
2023/06/20 00:19:34;;;;;;;7.80;3.50;;;20.60;99.90;;;;;;4977605;28;20034;-67
2023/06/20 00:22:02;;;;;;;5.57;3.63;;;20.70;99.90;;;;;;4977375;28;20396;-68
2023/06/20 00:24:32;;;;;;;7.50;3.40;;;20.70;99.90;;;;;;4977144;28;20026;-67
2023/06/20 00:27:00;;;;;;;5.00;3.67;;;20.70;99.90;;;;;;4985198;28;20026;-68
2023/06/20 00:29:25;;;;;;;5.22;3.13;;;20.60;99.90;;;;;;4985589;28;20484;-68
2023/06/20 00:31:51;;;;;;;9.85;3.00;;;20.50;99.90;;;;;;4980263;28;20106;-68
2023/06/20 00:34:17;;;;;;;4.93;3.35;;;20.60;99.90;;;;;;4982751;28;20439;-66
2023/06/20 00:36:42;;;;;;;7.43;3.55;;;20.50;99.90;;;;;;4981746;28;20022;-66
2023/06/20 00:39:08;;;;;;;4.63;3.50;;;20.50;99.90;;;;;;4983076;28;20881;-68
2023/06/20 00:41:34;;;;;;;4.50;3.50;;;20.50;99.90;;;;;;4994851;28;20050;-68
2023/06/20 00:44:03;;;;;;;4.25;2.90;;;20.50;99.90;;;;;;4942350;28;20074;-67
2023/06/20 00:46:40;;;;;;;4.60;3.20;;;20.60;99.90;;;;;;4994227;28;20368;-68
2023/06/20 00:49:09;;;;;;;4.97;3.30;;;20.50;99.90;;;;;;4997367;28;20498;-66
2023/06/20 00:51:37;;;;;;;7.00;3.25;;;20.50;99.90;;;;;;4993012;28;20061;-68
2023/06/20 00:54:03;;;;;;;5.15;3.55;;;20.40;99.90;;;;;;4989879;28;20030;-68
2023/06/20 00:56:29;;;;;;;6.82;3.47;;;20.40;99.90;;;;;;4992199;28;20487;-67
2023/06/20 00:58:55;;;;;;;4.75;3.33;;;20.30;99.90;;;;;;4990936;28;20030;-68
2023/06/20 01:01:21;;;;;;;5.53;3.92;;;20.20;99.90;;;;;;4984770;28;20042;-68
2023/06/20 01:03:49;;;;;;;4.10;2.78;;;20.20;99.90;;;;;;4994332;28;20026;-67
2023/06/20 01:06:42;;;;;;;4.95;3.90;;;20.10;99.90;;;;;;4989711;28;20034;-68
2023/06/20 01:09:25;;;;;;;4.85;3.45;;;20.10;99.90;;;;;;4984190;28;20023;-68
2023/06/20 01:11:56;;;;;;;6.47;3.45;;;20.10;99.90;;;;;;4989574;28;20034;-67
2023/06/20 01:15:16;;;;;;;5.75;3.97;;;20.00;99.90;;;;;;4994970;28;20122;-68
2023/06/20 01:17:50;;;;;;;6.43;3.55;;;20.00;99.90;;;;;;4962061;28;20113;-68
2023/06/20 01:20:24;;;;;;;6.28;3.70;;;20.00;99.90;;;;;;4989380;28;20045;-67
2023/06/20 01:23:00;;;;;;;6.20;3.63;;;20.00;99.90;;;;;;4989086;28;20030;-68
2023/06/20 01:25:54;;;;;;;6.90;3.75;;;20.00;99.90;;;;;;4986286;28;20093;-68
2023/06/20 01:28:33;;;;;;;5.40;3.30;;;20.00;99.90;;;;;;4986492;28;20072;-67
2023/06/20 01:31:15;;;;;;;5.88;2.90;;;19.90;99.90;;;;;;4969670;28;20034;-68
2023/06/20 01:34:07;;;;;;;3.92;3.13;;;20.00;99.90;;;;;;4973198;28;20027;-67
2023/06/20 01:36:36;;;;;;;5.90;3.75;;;19.90;99.90;;;;;;4972137;28;20109;-68
2023/06/20 01:39:08;;;;;;;5.05;3.70;;;19.90;99.90;;;;;;4973520;28;20031;-68
2023/06/20 01:41:37;;;;;;;5.70;3.33;;;19.90;99.90;;;;;;4974555;28;20030;-67
2023/06/20 01:44:06;;;;;;;6.72;3.72;;;19.80;99.90;;;;;;4974438;28;20140;-68
2023/06/20 01:46:33;;;;;;;5.13;3.15;;;19.80;99.90;;;;;;4975114;28;20034;-68
2023/06/20 01:49:00;;;;;;;4.53;3.33;;;19.70;99.90;;;;;;4972288;28;20034;-67
2023/06/20 01:51:28;;;;;;;5.25;2.97;;;19.70;99.90;;;;;;4975937;28;20566;-67
2023/06/20 01:53:55;;;;;;;10.68;3.97;;;19.70;99.90;;;;;;4972619;28;20123;-68
2023/06/20 01:56:21;;;;;;;6.00;3.85;;;19.60;99.90;;;;;;4975106;28;20053;-67
2023/06/20 01:58:48;;;;;;;6.72;3.80;;;19.60;99.90;;;;;;4969523;28;20803;-67
2023/06/20 02:01:15;;;;;;;4.28;3.33;;;19.50;99.90;;;;;;4976235;28;20100;-68
2023/06/20 02:03:42;;;;;;;3.90;2.88;;;19.50;99.90;;;;;;4975804;28;20081;-67
2023/06/20 02:06:10;;;;;;;4.57;3.38;;;19.40;99.90;;;;;;4964631;28;20073;-68
2023/06/20 02:08:37;;;;;;;5.53;3.22;;;19.40;99.90;;;;;;4981290;28;20614;-68
2023/06/20 02:11:03;;;;;;;5.03;3.83;;;19.40;99.90;;;;;;4981007;28;20522;-67
2023/06/20 02:13:29;;;;;;;5.60;3.10;;;19.50;99.90;;;;;;4976330;28;20061;-67
2023/06/20 02:15:57;;;;;;;5.72;3.55;;;19.50;99.90;;;;;;4973594;28;20157;-67
2023/06/20 02:18:23;;;;;;;3.97;3.35;;;19.50;99.90;;;;;;4977681;28;20524;-67
2023/06/20 02:20:52;;;;;;;5.38;3.97;;;19.40;99.90;;;;;;4976281;28;20034;-68
2023/06/20 02:23:31;;;;;;;5.00;3.67;;;19.50;99.90;;;;;;4979311;28;20026;-68
2023/06/20 02:26:07;;;;;;;6.10;3.70;;;19.50;99.90;;;;;;4967197;28;20256;-68
2023/06/20 02:28:34;;;;;;;6.40;3.63;;;19.50;99.90;;;;;;4970213;28;20045;-68
2023/06/20 02:31:00;;;;;;;4.35;3.38;;;19.50;99.90;;;;;;4969641;28;20038;-66
2023/06/20 02:33:27;;;;;;;8.13;4.15;;;19.50;99.90;;;;;;4974240;28;20033;-67
2023/06/20 02:35:53;;;;;;;5.05;3.65;;;19.50;99.90;;;;;;4973028;28;20030;-67
2023/06/20 02:38:19;;;;;;;4.65;3.33;;;19.50;99.90;;;;;;4975530;28;20026;-67
2023/06/20 02:40:45;;;;;;;4.53;3.38;;;19.50;99.90;;;;;;4975141;28;20139;-67
2023/06/20 02:43:10;;;;;;;4.57;3.40;;;19.50;99.90;;;;;;4972028;28;20047;-68
2023/06/20 02:45:36;;;;;;;6.28;4.07;;;19.50;99.90;;;;;;4967317;28;20045;-68
2023/06/20 02:48:23;;;;;;;6.20;3.42;;;19.50;99.90;;;;;;4972031;28;20036;-68
2023/06/20 02:51:14;;;;;;;5.55;3.53;;;19.50;99.90;;;;;;4972731;28;20034;-67
2023/06/20 02:53:56;;;;;;;4.45;3.47;;;19.50;99.90;;;;;;4971633;28;22056;-67
2023/06/20 02:56:23;;;;;;;4.90;3.50;;;19.50;99.90;;;;;;4975347;28;20026;-68
2023/06/20 02:58:52;;;;;;;6.13;4.43;;;19.50;99.90;;;;;;4973123;28;20419;-68
2023/06/20 03:01:30;;;;;;;4.95;3.55;;;19.50;99.90;;;;;;4974390;28;20065;-67
2023/06/20 03:03:58;;;;;;;6.40;3.22;;;19.40;99.90;;;;;;4973534;28;20342;-67
2023/06/20 03:06:27;;;;;;;3.80;2.83;;;19.40;99.90;;;;;;4960450;28;20042;-67
2023/06/20 03:08:54;;;;;;;5.38;3.67;;;19.40;99.90;;;;;;4974355;28;20193;-67
2023/06/20 03:11:21;;;;;;;6.82;3.35;;;19.30;99.90;;;;;;4976961;28;20038;-68
2023/06/20 03:13:47;;;;;;;10.82;3.40;;;19.30;99.90;;;;;;4975761;28;20042;-66
2023/06/20 03:16:12;;;;;;;5.35;3.55;;;19.30;99.90;;;;;;4971083;28;20135;-67
2023/06/20 03:18:38;;;;;;;4.80;3.63;;;19.30;99.90;;;;;;4971421;28;20093;-67
2023/06/20 03:21:04;;;;;;;6.25;3.90;;;19.20;99.90;;;;;;4969952;28;20038;-67
2023/06/20 03:23:31;;;;;;;5.40;3.90;;;19.20;99.90;;;;;;4977104;28;20039;-68
2023/06/20 03:25:57;;;;;;;4.57;3.55;;;19.20;99.90;;;;;;4966692;28;20045;-68
2023/06/20 03:28:23;;;;;;;4.60;3.25;;;19.20;99.90;;;;;;4970620;28;20031;-67
2023/06/20 03:30:49;;;;;;;6.50;3.58;;;19.20;99.90;;;;;;4969476;28;20038;-67
2023/06/20 03:33:14;;;;;;;4.65;3.40;;;19.20;99.90;;;;;;4975266;28;20030;-67
2023/06/20 03:35:40;;;;;;;6.18;3.60;;;19.20;99.90;;;;;;4973234;28;21703;-68
2023/06/20 03:38:05;;;;;;;5.53;3.78;;;19.20;99.90;;;;;;4969724;28;20121;-67
2023/06/20 03:40:31;;;;;;;4.97;3.30;;;19.30;99.90;;;;;;4971197;28;20042;-67
2023/06/20 03:42:57;;;;;;;4.95;3.70;;;19.30;99.90;;;;;;4975880;28;20073;-68
2023/06/20 03:45:23;;;;;;;7.03;4.07;;;19.30;99.90;;;;;;4969415;28;20491;-67
2023/06/20 03:47:48;;;;;;;5.00;3.58;;;19.30;99.90;;;;;;4971337;28;20027;-67
2023/06/20 03:50:14;;;;;;;5.28;3.97;;;19.30;99.90;;;;;;4972783;28;20027;-68
2023/06/20 03:52:40;;;;;;;5.35;3.83;;;19.30;99.90;;;;;;4972932;28;20052;-68
2023/06/20 03:55:06;;;;;;;5.65;4.18;;;19.20;99.90;;;;;;4971923;28;20030;-67
2023/06/20 03:57:32;;;;;;;5.93;3.80;;;19.30;99.90;;;;;;4971779;28;20034;-68
2023/06/20 03:59:57;;;;;;;4.65;3.33;;;19.30;99.90;;;;;;4979568;28;20026;-67
2023/06/20 04:02:23;;;;;;;4.32;3.50;;;19.30;99.90;;;;;;4975410;28;20031;-67
2023/06/20 04:04:51;;;;;;;5.50;4.00;;;19.40;99.90;;;;;;4979232;28;20041;-67
2023/06/20 04:07:20;;;;;;;6.55;3.97;;;19.40;99.90;;;;;;4956372;28;20528;-67
2023/06/20 04:09:46;;;;;;;7.40;3.75;;;19.40;99.90;;;;;;4997698;28;20462;-68
2023/06/20 04:12:12;;;;;;;5.03;3.42;;;19.40;99.90;;;;;;4974141;28;20041;-68
2023/06/20 04:14:37;;;;;;;5.30;4.10;;;19.40;99.90;;;;;;4977626;28;20026;-67
2023/06/20 04:17:04;;;;;;;4.95;3.35;;;19.40;99.90;;;;;;4972066;28;20828;-67
2023/06/20 04:19:29;;;;;;;6.70;4.00;;;19.50;99.90;;;;;;4976087;28;20089;-68
2023/06/20 04:21:55;;;;;;;4.78;3.58;;;19.50;99.90;;;;;;4974889;28;20030;-68
2023/06/20 04:24:20;;;;;;;5.53;3.75;;;19.50;99.90;;;;;;4982307;28;20922;-68
2023/06/20 04:26:46;;;;;;;5.32;4.00;;;19.50;99.90;;;;;;4974563;28;20034;-68
2023/06/20 04:29:11;;;;;;;6.13;3.70;;;19.50;99.90;;;;;;4974783;28;20101;-67
2023/06/20 04:31:37;;;;;;;4.60;3.88;;;19.50;99.90;;;;;;4973778;28;20487;-68
2023/06/20 04:34:03;;;;;;;5.72;3.67;;;19.50;99.90;;;;;;4977344;28;20034;-67
2023/06/20 04:36:29;;;;;;;5.07;3.72;;;19.50;99.90;;;;;;4970887;28;20118;-68
2023/06/20 04:38:55;;;;;;;5.53;3.67;;;19.50;99.90;;;;;;4975858;28;20030;-67
2023/06/20 04:41:21;;;;;;;8.10;3.75;;;19.60;99.90;;;;;;4976179;28;20029;-67
2023/06/20 04:43:46;;;;;;;7.63;3.35;;;19.60;99.90;;;;;;4974441;28;20141;-67
2023/06/20 04:46:12;;;;;;;5.45;3.60;;;19.60;99.90;;;;;;4969801;28;20037;-67
2023/06/20 04:48:38;;;;;;;4.70;3.40;;;19.70;99.90;;;;;;4975376;28;20081;-67
2023/06/20 04:51:08;;;;;;;5.45;4.13;;;19.70;99.90;;;;;;4973231;28;20037;-69
2023/06/20 04:53:34;;;;;;;5.40;4.05;;;19.80;99.90;;;;;;5006901;28;20520;-68
2023/06/20 04:56:00;;;;;;;5.43;3.90;;;19.90;99.90;;;;;;4974223;28;20031;-68
2023/06/20 04:58:28;;;;;;;6.45;3.75;;;20.00;99.90;;;;;;4971326;28;20050;-67
2023/06/20 05:00:57;;;;;;;6.88;3.78;;;20.10;99.90;;;;;;4973914;28;20050;-67
2023/06/20 05:03:23;;;;;;;3.85;3.35;;;20.20;99.90;;;;;;4973786;28;20105;-68
2023/06/20 05:05:49;;;;;;;4.90;3.72;;;20.30;99.90;;;;;;4937897;28;1109111;-67
2023/06/20 05:08:15;;;;;;;4.20;3.20;;;20.30;99.90;;;;;;4957740;28;20401;-68
2023/06/20 05:10:40;;;;;;;7.20;2.90;;;20.40;99.90;;;;;;4971085;28;20034;-68
2023/06/20 05:13:06;;;;;;;5.50;3.25;;;20.50;99.90;;;;;;4976583;28;20653;-67
2023/06/20 05:15:31;;;;;;;5.45;3.45;;;20.60;99.90;;;;;;4971193;28;20030;-68
2023/06/20 05:17:57;;;;;;;5.55;3.22;;;20.60;99.90;;;;;;5002755;28;20038;-67
2023/06/20 05:20:22;;;;;;;6.70;4.18;;;20.70;99.90;;;;;;4975159;28;20459;-68
2023/06/20 05:22:48;;;;;;;7.20;3.30;;;20.70;99.90;;;;;;4973776;28;20189;-69
2023/06/20 05:25:14;;;;;;;5.80;3.17;;;20.70;99.90;;;;;;4975263;28;20034;-66
2023/06/20 05:27:40;;;;;;;6.00;3.35;;;20.70;99.90;;;;;;5002453;28;20034;-65
2023/06/20 05:30:08;;;;;;;4.57;3.30;;;20.80;99.90;;;;;;4975393;28;20018;-66
2023/06/20 05:32:34;;;;;;;7.45;3.92;;;20.90;99.90;;;;;;4974990;28;22035;-66
2023/06/20 05:35:00;;;;;;;5.75;4.18;;;21.10;99.90;;;;;;4974360;28;20039;-66
2023/06/20 05:37:28;;;;;;;4.90;3.70;;;21.20;99.90;;;;;;4970121;28;20577;-67
2023/06/20 05:39:53;;;;;;;6.00;3.70;;;21.30;99.90;;;;;;4971087;28;20023;-66
2023/06/20 05:42:19;;;;;;;5.18;3.67;;;21.60;99.90;;;;;;4972182;28;20034;-66
2023/06/20 05:44:44;;;;;;;4.28;2.90;;;21.70;99.90;;;;;;4973637;28;20030;-66
2023/06/20 05:47:17;;;;;;;4.28;3.15;;;21.90;99.90;;;;;;4973143;28;20063;-66
2023/06/20 05:49:46;;;;;;;3.75;3.17;;;22.30;99.90;;;;;;4971526;28;22305;-66
2023/06/20 05:52:12;;;;;;;4.45;2.85;;;22.30;99.90;;;;;;4978708;28;20711;-66
2023/06/20 05:54:37;;;;;;;4.15;2.92;;;22.20;99.90;;;;;;4980861;28;20026;-66
2023/06/20 05:57:05;;;;;;;5.35;3.55;;;22.10;99.90;;;;;;4992750;28;20027;-66
2023/06/20 05:59:31;;;;;;;5.88;3.95;;;22.10;99.90;;;;;;4980476;28;20054;-67
2023/06/20 06:01:57;;;;;;;3.88;2.58;;;22.00;99.90;;;;;;4997628;28;20044;-66
2023/06/20 06:04:22;;;;;;;6.13;3.15;;;22.10;99.90;;;;;;4998217;28;20116;-66
2023/06/20 06:06:48;;;;;;;4.07;2.83;;;22.30;99.90;;;;;;4990452;28;20062;-65
2023/06/20 06:09:15;;;;;;;3.90;2.85;;;22.40;99.90;;;;;;4972627;28;20046;-67
2023/06/20 06:11:40;;;;;;;3.50;2.70;;;22.50;99.90;;;;;;4998545;28;20431;-66
2023/06/20 06:14:06;;;;;;;5.45;3.45;;;22.30;99.90;;;;;;5015257;28;20034;-66
2023/06/20 06:16:31;;;;;;;3.15;2.58;;;22.10;99.90;;;;;;4999751;28;20034;-66
2023/06/20 06:18:59;;;;;;;4.75;3.10;;;22.10;99.90;;;;;;4991502;28;20122;-66
2023/06/20 06:21:25;;;;;;;3.80;2.83;;;22.20;99.90;;;;;;4986316;28;20399;-66
2023/06/20 06:23:50;;;;;;;4.55;2.85;;;22.40;99.90;;;;;;5002951;28;20507;-65
2023/06/20 06:26:16;;;;;;;4.28;2.75;;;23.30;99.90;;;;;;4988102;28;20114;-66
2023/06/20 06:28:42;;;;;;;4.00;2.25;;;24.70;99.90;;;;;;4989233;28;20027;-66
2023/06/20 06:31:13;;;;;;;4.53;2.10;;;26.40;99.90;;;;;;4983781;28;22176;-67
2023/06/20 06:33:40;;;;;;;7.30;2.50;;;27.70;97.60;;;;;;4997550;28;20109;-66
2023/06/20 06:36:06;;;;;;;3.38;2.75;;;29.50;94.30;;;;;;4988098;28;20034;-68
2023/06/20 06:38:32;;;;;;;3.78;2.33;;;30.00;91.00;;;;;;4990641;28;20037;-67
2023/06/20 06:40:59;;;;;;;4.15;2.20;;;31.20;90.10;;;;;;4986958;28;20038;-67
2023/06/20 06:43:25;;;;;;;3.28;2.10;;;31.50;87.10;;;;;;4985830;28;20473;-67
2023/06/20 06:45:51;;;;;;;2.67;2.10;;;31.30;90.10;;;;;;4986271;28;20038;-65
2023/06/20 06:48:16;;;;;;;5.28;2.38;;;32.30;85.50;;;;;;4994851;28;20049;-67
2023/06/20 06:50:43;;;;;;;2.75;2.28;;;32.00;81.90;;;;;;4985315;28;20487;-67
2023/06/20 06:53:12;;;;;;;2.40;2.10;;;32.00;83.50;;;;;;4995697;28;20030;-67
2023/06/20 06:55:38;;;;;;;4.13;2.55;;;32.10;82.20;;;;;;4994897;28;20038;-68
2023/06/20 06:58:03;;;;;;;3.60;2.17;;;33.10;80.90;;;;;;4988346;28;21593;-67
2023/06/20 07:00:29;;;;;;;2.92;2.42;;;34.20;78.30;;;;;;4991279;28;21854;-67
2023/06/20 07:02:55;;;;;;;2.72;2.33;;;33.80;76.60;;;;;;4988782;28;20402;-67
2023/06/20 07:05:20;;;;;;;4.07;2.40;;;33.80;77.50;;;;;;4987170;28;20037;-67
2023/06/20 07:07:46;;;;;;;3.72;2.10;;;34.20;75.70;;;;;;4979451;28;20053;-67
2023/06/20 07:10:12;;;;;;;3.25;2.40;;;34.50;76.30;;;;;;4986926;28;20403;-66
2023/06/20 07:12:38;;;;;;;2.58;2.38;;;35.50;72.60;;;;;;4981098;28;20549;-67
2023/06/20 07:15:04;;;;;;;3.38;2.28;;;34.70;73.00;;;;;;4981867;28;20034;-67
2023/06/20 07:17:30;;;;;;;4.50;2.53;;;34.50;73.80;;;;;;4988836;28;20060;-67
2023/06/20 07:19:56;;;;;;;2.38;2.17;;;34.40;74.10;;;;;;4994670;28;20053;-67
2023/06/20 07:22:21;;;;;;;4.93;2.72;;;35.70;72.00;;;;;;4985839;28;20526;-67
2023/06/20 07:24:48;;;;;;;2.78;2.10;;;35.30;72.80;;;;;;4988159;28;20023;-67
2023/06/20 07:27:14;;;;;;;3.25;2.40;;;35.40;74.20;;;;;;4989752;28;20018;-66
2023/06/20 07:29:41;;;;;;;4.68;2.70;;;35.80;72.60;;;;;;5009865;28;20518;-67
2023/06/20 07:32:06;;;;;;;2.80;2.50;;;36.80;72.10;;;;;;4996212;28;20030;-67
2023/06/20 07:34:32;;;;;;;4.93;2.38;;;37.50;69.10;;;;;;4986301;28;20037;-67
2023/06/20 07:36:58;;;;;;;2.55;2.35;;;37.30;68.90;;;;;;4985671;28;20514;-67
2023/06/20 07:39:23;;;;;;;5.32;2.53;;;37.40;70.00;;;;;;4984848;28;20035;-68
2023/06/20 07:41:49;;;;;;;4.13;2.20;;;37.60;68.60;;;;;;4985643;28;20041;-66
2023/06/20 07:44:14;;;;;;;2.95;2.60;;;38.40;68.10;;;;;;4984397;28;20499;-67
2023/06/20 07:46:40;;;;;;;2.60;2.38;;;38.10;66.90;;;;;;4991714;28;20140;-67
2023/06/20 07:49:06;;;;;;;3.17;2.58;;;37.30;67.50;;;;;;4990415;28;20023;-67
2023/06/20 07:51:33;;;;;;;4.57;2.92;;;36.90;67.90;;;;;;4981725;28;20026;-67
2023/06/20 07:54:03;;;;;;;3.10;2.63;;;37.50;66.50;;;;;;4980712;28;20173;-67
2023/06/20 07:56:28;;;;;;;4.05;2.50;;;37.30;66.80;;;;;;4986406;28;20513;-67
2023/06/20 07:58:54;;;;;;;6.03;2.65;;;37.30;67.90;;;;;;4985028;28;20042;-67
2023/06/20 08:01:20;;;;;;;2.78;2.42;;;37.50;66.50;;;;;;4988989;28;20056;-67
2023/06/20 08:03:46;;;;;;;3.15;2.80;;;37.80;66.60;;;;;;4991802;28;20018;-67
2023/06/20 08:06:11;;;;;;;3.28;2.97;;;37.50;66.30;;;;;;4985635;28;20040;-67
2023/06/20 08:08:38;;;;;;;6.30;2.70;;;37.10;66.10;;;;;;4973586;28;20048;-67
2023/06/20 08:11:04;;;;;;;6.30;2.35;;;36.70;67.00;;;;;;4990338;28;20178;-67
2023/06/20 08:13:30;;;;;;;2.80;2.60;;;37.20;68.30;;;;;;4987256;28;21353;-68
2023/06/20 08:15:57;;;;;;;3.17;2.88;;;36.70;67.40;;;;;;4986223;28;20502;-68
2023/06/20 08:18:22;;;;;;;2.88;2.53;;;36.70;65.60;;;;;;4988642;28;20407;-67
2023/06/20 08:20:48;;;;;;;3.13;2.83;;;37.10;66.20;;;;;;4987979;28;20035;-68
2023/06/20 08:23:24;;;;;;;5.00;3.05;;;37.30;65.30;;;;;;4988566;28;20035;-67
2023/06/20 08:25:50;;;;;;;2.88;2.67;;;37.90;66.30;;;;;;4989151;28;20037;-67
2023/06/20 08:28:15;;;;;;;6.05;2.83;;;36.60;66.00;;;;;;4988505;28;20407;-65
2023/06/20 08:30:41;;;;;;;3.03;2.72;;;37.70;66.20;;;;;;4987372;28;20112;-67
2023/06/20 08:33:07;;;;;;;2.97;2.30;;;38.50;64.20;;;;;;4985733;28;20410;-67
2023/06/20 08:35:32;;;;;;;2.85;2.55;;;38.70;63.50;;;;;;4984610;28;20023;-67
2023/06/20 08:37:58;;;;;;;3.58;2.55;;;38.70;63.50;;;;;;4989646;28;20039;-67
2023/06/20 08:40:24;;;;;;;2.50;2.30;;;38.30;65.70;;;;;;4987170;28;20166;-67
2023/06/20 08:42:49;;;;;;;4.88;2.65;;;38.60;63.50;;;;;;4985718;28;20088;-67
2023/06/20 08:45:16;;;;;;;2.92;2.63;;;38.10;65.80;;;;;;4988960;28;20105;-67
2023/06/20 08:47:41;;;;;;;3.00;2.67;;;38.00;65.20;;;;;;4990839;28;20030;-67
2023/06/20 08:50:08;;;;;;;5.25;2.92;;;37.90;66.00;;;;;;4986934;28;20038;-67
2023/06/20 08:52:59;;;;;;;2.60;2.40;;;36.60;65.50;;;;;;4991576;28;20824;-68
2023/06/20 08:55:25;;;;;;;3.38;2.90;;;37.00;67.30;;;;;;4998985;28;20049;-67
2023/06/20 08:57:53;;;;;;;6.40;3.15;;;37.60;67.10;;;;;;4993111;28;20030;-65
2023/06/20 09:00:20;;;;;;;3.33;2.72;;;37.50;65.20;;;;;;4992396;28;20934;-66
2023/06/20 09:02:55;;;;;;;3.15;2.72;;;37.10;65.40;;;;;;4991784;28;20488;-66
2023/06/20 09:05:21;;;;;;;3.50;2.95;;;36.40;66.50;;;;;;5024691;28;20446;-67
2023/06/20 09:07:47;;;;;;;2.67;2.47;;;35.40;68.50;;;;;;4997324;28;20037;-66
2023/06/20 09:10:18;;;;;;;4.22;2.88;;;35.20;69.30;;;;;;4992771;28;20420;-66
2023/06/20 09:12:54;;;;;;;3.53;2.80;;;35.50;69.00;;;;;;4982917;28;20058;-66
2023/06/20 09:15:25;;;;;;;7.80;3.30;;;36.20;68.20;;;;;;4987383;28;20459;-66
2023/06/20 09:17:55;;;;;;;3.75;3.10;;;37.10;66.60;;;;;;4991600;28;20022;-66
2023/06/20 09:20:25;;;;;;;2.72;2.38;;;37.50;65.50;;;;;;4999535;28;20041;-66
2023/06/20 09:22:51;;;;;;;6.50;3.72;;;37.50;66.80;;;;;;4991423;28;20034;-66
2023/06/20 09:25:27;;;;;;;5.25;3.67;;;37.20;65.40;;;;;;4996711;28;20038;-66
2023/06/20 09:27:54;;;;;;;3.53;3.15;;;36.70;66.50;;;;;;4985567;28;20045;-66
2023/06/20 09:30:20;;;;;;;4.28;3.05;;;36.90;65.90;;;;;;4988423;28;20034;-67
2023/06/20 09:32:46;;;;;;;4.25;2.75;;;36.10;66.30;;;;;;4985020;28;20026;-66
2023/06/20 09:35:14;;;;;;;4.22;2.45;;;36.30;66.90;;;;;;4993176;28;20472;-66
2023/06/20 09:37:41;;;;;;;3.80;2.45;;;36.50;68.00;;;;;;4996450;28;20026;-66
2023/06/20 09:40:09;;;;;;;3.42;2.58;;;35.80;69.10;;;;;;4987963;28;20522;-66
2023/06/20 09:42:36;;;;;;;4.30;2.45;;;35.80;69.90;;;;;;4988838;28;20030;-66
2023/06/20 09:45:02;;;;;;;4.03;2.55;;;37.00;66.80;;;;;;4989729;28;20050;-66
2023/06/20 09:47:27;;;;;;;2.97;2.67;;;36.80;66.30;;;;;;4999363;28;20487;-66
2023/06/20 09:49:57;;;;;;;3.42;2.53;;;37.00;65.90;;;;;;5004663;28;20510;-65
2023/06/20 09:52:31;;;;;;;3.13;2.40;;;36.30;65.10;;;;;;4993766;28;21065;-66
2023/06/20 09:55:00;;;;;;;3.75;2.58;;;35.60;67.20;;;;;;4994544;28;20027;-66
2023/06/20 09:57:34;;;;;;;3.97;2.75;;;35.80;68.70;;;;;;4988264;28;20080;-67
2023/06/20 10:00:01;;;;;;;4.10;3.00;;;36.60;66.50;;;;;;4995753;28;20393;-67
2023/06/20 10:02:28;;;;;;;4.93;2.40;;;36.10;65.70;;;;;;4998362;28;20026;-67
2023/06/20 10:04:55;;;;;;;3.45;2.38;;;36.40;66.10;;;;;;4994100;28;20069;-67
2023/06/20 10:07:21;;;;;;;3.05;2.38;;;37.00;65.70;;;;;;4990260;28;20034;-67
2023/06/20 10:09:48;;;;;;;3.00;2.60;;;36.50;65.40;;;;;;4973037;28;20038;-66
2023/06/20 10:12:15;;;;;;;3.47;2.60;;;36.10;65.60;;;;;;4990165;28;20482;-66
2023/06/20 10:14:41;;;;;;;3.97;2.78;;;35.80;67.30;;;;;;4995874;28;20076;-66
2023/06/20 10:17:12;;;;;;;5.65;2.78;;;35.10;69.00;;;;;;4986555;28;20487;-65
2023/06/20 10:19:51;;;;;;;5.32;2.85;;;35.10;68.70;;;;;;4999433;28;20022;-66
2023/06/20 10:22:43;;;;;;;4.35;2.67;;;34.70;68.10;;;;;;4989213;28;20132;-66
2023/06/20 10:25:14;;;;;;;3.05;2.75;;;34.50;69.60;;;;;;4992708;28;20025;-65
2023/06/20 10:27:44;;;;;;;3.17;2.53;;;34.50;70.40;;;;;;4994830;28;20026;-66
2023/06/20 10:30:13;;;;;;;3.22;2.60;;;34.40;68.50;;;;;;4991839;28;20110;-65
2023/06/20 10:33:10;;;;;;;4.93;2.72;;;34.00;68.60;;;;;;4984429;28;20506;-66
2023/06/20 10:36:08;;;;;;;3.78;2.80;;;33.10;70.20;;;;;;4996679;28;20519;-66
2023/06/20 10:38:38;;;;;;;3.65;2.47;;;32.90;72.40;;;;;;4992847;28;20037;-66
2023/06/20 10:41:14;;;;;;;2.80;2.50;;;33.20;71.20;;;;;;4988529;28;20026;-66
2023/06/20 10:43:48;;;;;;;3.25;2.53;;;33.40;71.50;;;;;;4982249;28;20507;-66
2023/06/20 10:46:13;;;;;;;3.75;2.70;;;33.40;71.30;;;;;;4996814;28;20514;-66
2023/06/20 10:48:39;;;;;;;4.65;2.75;;;33.40;72.40;;;;;;4989109;28;20038;-66
2023/06/20 10:51:05;;;;;;;3.08;2.42;;;33.40;71.60;;;;;;4986802;28;20060;-66
2023/06/20 10:53:31;;;;;;;3.28;2.42;;;33.50;71.00;;;;;;4994431;28;20030;-66
2023/06/20 10:55:57;;;;;;;5.32;3.03;;;33.20;71.70;;;;;;4983560;28;20027;-66
2023/06/20 10:58:23;;;;;;;5.38;2.65;;;33.00;72.90;;;;;;4979181;28;20518;-66
2023/06/20 11:00:53;;;;;;;4.60;2.95;;;32.80;73.50;;;;;;4988529;28;20026;-66
2023/06/20 11:03:20;;;;;;;4.18;2.70;;;32.90;72.20;;;;;;4993100;28;20096;-66
2023/06/20 11:05:50;;;;;;;5.55;2.78;;;33.00;73.20;;;;;;4988791;28;20503;-66
2023/06/20 11:08:26;;;;;;;5.07;2.72;;;33.00;72.20;;;;;;4989327;28;20035;-66
2023/06/20 11:10:53;;;;;;;3.75;2.72;;;32.90;72.80;;;;;;4981951;28;20416;-66
2023/06/20 11:13:19;;;;;;;3.38;2.50;;;33.00;73.80;;;;;;4989589;28;20468;-66
2023/06/20 11:15:44;;;;;;;3.53;2.60;;;33.10;73.90;;;;;;4994187;28;20041;-67
2023/06/20 11:18:10;;;;;;;5.38;2.40;;;33.40;72.30;;;;;;4994827;28;20034;-66
2023/06/20 11:20:40;;;;;;;4.40;3.03;;;33.30;72.40;;;;;;4989054;28;20435;-66
2023/06/20 11:23:13;;;;;;;4.30;2.88;;;33.10;72.10;;;;;;4984274;28;20101;-66
2023/06/20 11:25:41;;;;;;;4.43;2.97;;;33.00;72.20;;;;;;4978761;28;20165;-66
2023/06/20 11:28:12;;;;;;;4.38;3.13;;;32.70;71.30;;;;;;5010821;28;20038;-66
2023/06/20 11:30:40;;;;;;;3.38;2.40;;;32.50;72.80;;;;;;4993481;28;20060;-66
2023/06/20 11:33:13;;;;;;;3.17;2.75;;;32.30;73.30;;;;;;4989684;28;20030;-66
2023/06/20 11:35:54;;;;;;;6.32;3.22;;;32.40;73.50;;;;;;4983818;28;20019;-66
2023/06/20 11:38:28;;;;;;;4.25;2.67;;;32.70;75.10;;;;;;4986890;28;20038;-67
2023/06/20 11:41:04;;;;;;;7.45;2.97;;;32.70;71.90;;;;;;4981639;28;20096;-66
2023/06/20 11:43:43;;;;;;;4.07;2.70;;;32.70;73.90;;;;;;4979843;28;20097;-66
2023/06/20 11:46:11;;;;;;;5.15;2.58;;;32.40;72.80;;;;;;4989121;28;20253;-66
2023/06/20 11:48:46;;;;;;;4.88;2.78;;;32.20;73.20;;;;;;4978402;28;20160;-66
2023/06/20 11:51:12;;;;;;;3.60;2.83;;;32.30;73.30;;;;;;4984024;28;20039;-66
2023/06/20 11:53:38;;;;;;;7.47;2.78;;;32.40;73.60;;;;;;4985562;28;20046;-66
2023/06/20 11:56:08;;;;;;;4.38;2.85;;;32.30;74.40;;;;;;4988554;28;20030;-67
2023/06/20 11:58:41;;;;;;;5.40;2.58;;;32.50;75.00;;;;;;4987321;28;20562;-67
2023/06/20 12:01:13;;;;;;;6.80;3.33;;;32.50;73.30;;;;;;4987515;28;20749;-67
2023/06/20 12:03:41;;;;;;;3.03;2.42;;;32.30;72.90;;;;;;4990541;28;20022;-67
2023/06/20 12:06:26;;;;;;;3.92;2.55;;;32.10;73.90;;;;;;4984318;28;20561;-66
2023/06/20 12:08:54;;;;;;;3.40;2.75;;;32.10;75.00;;;;;;4987897;28;20030;-67
2023/06/20 12:11:19;;;;;;;5.15;2.42;;;32.00;75.10;;;;;;4972532;28;20061;-67
2023/06/20 12:13:45;;;;;;;4.53;2.50;;;31.90;74.40;;;;;;4985227;28;20487;-67
2023/06/20 12:16:11;;;;;;;3.42;3.00;;;31.60;74.80;;;;;;4989419;28;20022;-67
2023/06/20 12:18:36;;;;;;;3.53;2.65;;;31.60;74.80;;;;;;4987555;28;20126;-67
2023/06/20 12:21:02;;;;;;;2.63;2.40;;;31.80;74.50;;;;;;4985801;28;20034;-66
2023/06/20 12:23:28;;;;;;;3.00;2.53;;;31.80;74.20;;;;;;5022262;28;20018;-67
2023/06/20 12:25:53;;;;;;;5.20;3.03;;;32.00;73.80;;;;;;4986571;28;20529;-66
2023/06/20 12:28:19;;;;;;;3.08;2.78;;;32.30;74.10;;;;;;4986337;28;20041;-67
2023/06/20 12:30:45;;;;;;;4.35;2.70;;;32.20;73.40;;;;;;4983322;28;20038;-67
2023/06/20 12:33:11;;;;;;;5.60;3.15;;;32.40;73.30;;;;;;4989174;28;20040;-67
2023/06/20 12:35:37;;;;;;;3.40;2.47;;;32.40;74.00;;;;;;4983533;28;20105;-67
2023/06/20 12:38:03;;;;;;;4.47;2.60;;;32.70;74.00;;;;;;4985108;28;20049;-67
2023/06/20 12:40:29;;;;;;;4.60;2.78;;;32.80;74.30;;;;;;5015916;28;20132;-67
2023/06/20 12:42:54;;;;;;;2.75;2.55;;;32.70;73.10;;;;;;4987022;28;20018;-67
2023/06/20 12:45:20;;;;;;;5.25;2.75;;;32.70;72.90;;;;;;4988481;28;20711;-67
2023/06/20 12:47:46;;;;;;;4.00;2.80;;;32.60;72.90;;;;;;4986218;28;20038;-67
2023/06/20 12:50:11;;;;;;;6.13;3.33;;;32.60;73.00;;;;;;4988632;28;20029;-67